createdAt,value
2023-03-18T00:00:16.721Z,11.10
2023-03-18T00:02:47.766Z,11.20
2023-03-18T00:05:15.070Z,11.20
2023-03-18T00:07:42.083Z,11.20
2023-03-18T00:10:10.372Z,11.20
2023-03-18T00:12:38.962Z,11.20
2023-03-18T00:15:11.493Z,11.30
2023-03-18T00:17:40.054Z,11.30
2023-03-18T00:20:07.721Z,11.30
2023-03-18T00:22:38.963Z,11.30
2023-03-18T00:25:10.337Z,11.40
2023-03-18T00:27:37.979Z,11.40
2023-03-18T00:30:06.447Z,11.40
2023-03-18T00:32:36.078Z,11.40
2023-03-18T00:35:04.267Z,11.50
2023-03-18T00:37:31.514Z,11.40
2023-03-18T00:40:06.785Z,11.40
2023-03-18T00:42:47.350Z,11.40
2023-03-18T00:45:16.148Z,11.50
2023-03-18T00:47:43.814Z,11.50
2023-03-18T00:50:13.640Z,11.50
2023-03-18T00:52:40.409Z,11.50
2023-03-18T00:55:08.289Z,11.50
2023-03-18T00:57:37.745Z,11.40
2023-03-18T01:00:07.143Z,11.40
2023-03-18T01:02:34.404Z,11.40
2023-03-18T01:05:03.887Z,11.40
2023-03-18T01:07:30.624Z,11.40
2023-03-18T01:09:57.301Z,11.40
2023-03-18T01:12:25.570Z,11.30
2023-03-18T01:14:52.522Z,11.40
2023-03-18T01:17:19.245Z,11.30
2023-03-18T01:19:45.927Z,11.40
2023-03-18T01:22:12.623Z,11.30
2023-03-18T01:24:40.186Z,11.30
2023-03-18T01:27:07.644Z,11.30
2023-03-18T01:29:39.552Z,11.30
2023-03-18T01:32:06.941Z,11.30
2023-03-18T01:34:34.193Z,11.30
2023-03-18T01:37:03.463Z,11.20
2023-03-18T01:39:30.146Z,11.20
2023-03-18T01:41:56.849Z,11.20
2023-03-18T01:44:29.156Z,11.20
2023-03-18T01:46:58.216Z,11.20
2023-03-18T01:49:34.996Z,11.20
2023-03-18T01:52:12.689Z,11.10
2023-03-18T01:54:47.518Z,11.20
2023-03-18T01:57:17.925Z,11.20
2023-03-18T01:59:46.052Z,11.20
2023-03-18T02:02:16.104Z,11.20
2023-03-18T02:04:51.758Z,11.10
2023-03-18T02:07:27.843Z,11.00
2023-03-18T02:09:59.644Z,11.00
2023-03-18T02:12:31.818Z,10.90
2023-03-18T02:15:00.282Z,10.90
2023-03-18T02:17:31.771Z,10.90
2023-03-18T02:20:07.469Z,10.90
2023-03-18T02:22:39.665Z,10.80
2023-03-18T02:25:32.709Z,10.80
2023-03-18T02:28:03.558Z,10.90
2023-03-18T02:30:44.495Z,10.90
2023-03-18T02:33:16.209Z,10.90
2023-03-18T02:35:46.457Z,10.80
2023-03-18T02:38:15.743Z,10.90
2023-03-18T02:40:42.772Z,10.90
2023-03-18T02:43:31.910Z,10.90
2023-03-18T02:46:21.455Z,10.80
2023-03-18T02:48:51.410Z,10.90
2023-03-18T02:51:18.836Z,10.90
2023-03-18T02:53:48.713Z,10.90
2023-03-18T02:56:16.031Z,10.80
2023-03-18T02:58:45.543Z,10.80
2023-03-18T03:01:12.388Z,10.80
2023-03-18T03:03:39.709Z,10.80
2023-03-18T03:06:09.362Z,10.80
2023-03-18T03:08:36.601Z,10.70
2023-03-18T03:11:04.220Z,10.70
2023-03-18T03:13:31.064Z,10.60
2023-03-18T03:15:57.907Z,10.50
2023-03-18T03:18:25.414Z,10.40
2023-03-18T03:20:54.418Z,10.40
2023-03-18T03:23:21.139Z,10.40
2023-03-18T03:25:48.020Z,10.50
2023-03-18T03:28:18.850Z,10.40
2023-03-18T03:30:46.144Z,10.40
2023-03-18T03:33:15.590Z,10.40
2023-03-18T03:35:42.431Z,10.40
2023-03-18T03:38:11.446Z,10.40
2023-03-18T03:40:38.937Z,10.30
2023-03-18T03:43:06.496Z,10.40
2023-03-18T03:45:33.878Z,10.30
2023-03-18T03:48:00.930Z,10.30
2023-03-18T03:50:27.840Z,10.30
2023-03-18T03:52:57.087Z,10.30
2023-03-18T03:55:24.492Z,10.20
2023-03-18T03:57:51.712Z,10.20
2023-03-18T04:00:22.163Z,10.20
2023-03-18T04:02:51.244Z,10.10
2023-03-18T04:05:21.329Z,10.10
2023-03-18T04:07:48.355Z,10.10
2023-03-18T04:10:20.545Z,10.10
2023-03-18T04:12:48.702Z,10.10
2023-03-18T04:15:21.215Z,10.10
2023-03-18T04:17:51.517Z,10.10
2023-03-18T04:20:18.907Z,10.10
2023-03-18T04:22:45.626Z,10.00
2023-03-18T04:25:14.739Z,10.10
2023-03-18T04:27:42.293Z,10.00
2023-03-18T04:30:12.676Z,10.00
2023-03-18T04:35:07.341Z,9.80
2023-03-18T04:37:37.330Z,9.80
2023-03-18T04:40:08.345Z,9.70
2023-03-18T04:42:37.291Z,9.70
2023-03-18T04:45:05.517Z,9.70
2023-03-18T04:47:33.137Z,9.60
2023-03-18T04:50:04.568Z,9.50
2023-03-18T04:52:33.703Z,9.40
2023-03-18T04:55:00.566Z,9.60
2023-03-18T04:57:28.519Z,9.60
2023-03-18T04:59:55.279Z,9.70
2023-03-18T05:02:21.949Z,9.80
2023-03-18T05:04:51.185Z,9.80
2023-03-18T05:07:18.144Z,9.80
2023-03-18T05:09:44.959Z,9.60
2023-03-18T05:12:18.382Z,9.50
2023-03-18T05:14:45.965Z,9.40
2023-03-18T05:17:17.121Z,9.40
2023-03-18T05:19:48.458Z,9.40
2023-03-18T05:22:19.339Z,9.40
2023-03-18T05:24:46.754Z,9.40
2023-03-18T05:27:18.344Z,9.40
2023-03-18T05:29:46.012Z,9.40
2023-03-18T05:32:17.721Z,9.40
2023-03-18T05:34:44.821Z,9.40
2023-03-18T05:37:16.411Z,9.50
2023-03-18T05:39:44.998Z,9.40
2023-03-18T05:42:12.525Z,9.40
2023-03-18T05:44:40.374Z,9.30
2023-03-18T05:47:07.372Z,9.30
2023-03-18T05:49:34.482Z,9.30
2023-03-18T05:52:01.353Z,9.30
2023-03-18T05:54:28.808Z,9.30
2023-03-18T05:56:56.024Z,9.20
2023-03-18T05:59:23.990Z,9.20
2023-03-18T06:01:51.155Z,9.30
2023-03-18T06:04:20.387Z,9.20
2023-03-18T06:06:48.270Z,9.30
2023-03-18T06:09:17.684Z,9.20
2023-03-18T06:11:45.642Z,9.30
2023-03-18T06:14:17.445Z,9.40
2023-03-18T06:16:45.330Z,9.40
2023-03-18T06:19:14.765Z,9.50
2023-03-18T06:21:41.490Z,9.60
2023-03-18T06:24:13.239Z,9.60
2023-03-18T06:26:44.788Z,9.70
2023-03-18T06:29:11.954Z,9.70
2023-03-18T06:31:38.647Z,9.80
2023-03-18T06:34:05.309Z,9.90
2023-03-18T06:36:33.421Z,9.80
2023-03-18T06:39:00.085Z,9.80
2023-03-18T06:41:28.040Z,9.70
2023-03-18T06:43:54.744Z,9.70
2023-03-18T06:46:21.460Z,9.70
2023-03-18T06:48:50.773Z,9.70
2023-03-18T06:51:17.861Z,9.80
2023-03-18T06:53:45.089Z,9.90
2023-03-18T06:56:15.789Z,10.00
2023-03-18T06:58:45.826Z,10.20
2023-03-18T07:01:12.612Z,10.30
2023-03-18T07:03:39.534Z,10.40
2023-03-18T07:06:10.282Z,10.50
2023-03-18T07:08:37.136Z,10.60
2023-03-18T07:11:04.862Z,10.60
2023-03-18T07:13:31.626Z,10.70
2023-03-18T07:15:58.972Z,10.80
2023-03-18T07:18:28.197Z,10.80
2023-03-18T07:20:57.527Z,10.80
2023-03-18T07:23:24.234Z,10.90
2023-03-18T07:25:53.483Z,11.00
2023-03-18T07:28:20.192Z,11.10
2023-03-18T07:30:51.932Z,11.20
2023-03-18T07:33:22.224Z,11.30
2023-03-18T07:35:48.932Z,11.40
2023-03-18T07:38:18.151Z,11.50
2023-03-18T07:40:44.836Z,11.60
2023-03-18T07:43:11.549Z,11.60
2023-03-18T07:45:40.921Z,11.70
2023-03-18T07:48:07.660Z,11.80
2023-03-18T07:50:39.186Z,11.80
2023-03-18T07:53:05.845Z,11.90
2023-03-18T07:55:33.217Z,12.10
2023-03-18T07:58:00.278Z,12.10
2023-03-18T08:02:54.434Z,12.20
2023-03-18T08:05:23.897Z,12.40
2023-03-18T08:07:50.579Z,12.60
2023-03-18T08:10:17.464Z,12.60
2023-03-18T08:12:52.651Z,12.70
2023-03-18T08:15:20.792Z,12.90
2023-03-18T08:17:50.099Z,12.80
2023-03-18T08:20:19.187Z,12.90
2023-03-18T08:22:46.049Z,12.90
2023-03-18T08:25:13.503Z,13.00
2023-03-18T08:27:43.163Z,13.10
2023-03-18T08:30:10.648Z,13.10
2023-03-18T08:32:40.045Z,13.10
2023-03-18T08:35:07.213Z,13.20
2023-03-18T08:37:33.941Z,13.30
2023-03-18T08:40:00.578Z,13.40
2023-03-18T08:42:30.504Z,13.40
2023-03-18T08:44:57.184Z,13.50
2023-03-18T08:47:26.098Z,13.60
2023-03-18T08:49:52.791Z,13.60
2023-03-18T08:52:19.843Z,13.70
2023-03-18T08:54:46.509Z,13.80
2023-03-18T08:57:13.733Z,14.00
2023-03-18T08:59:42.943Z,14.20
2023-03-18T09:02:16.884Z,14.30
2023-03-18T09:04:44.219Z,14.50
2023-03-18T09:07:14.583Z,14.60
2023-03-18T09:09:43.904Z,14.70
2023-03-18T09:12:12.490Z,14.80
2023-03-18T09:14:40.441Z,15.10
2023-03-18T09:17:07.377Z,15.20
2023-03-18T09:19:34.740Z,15.30
2023-03-18T09:22:01.469Z,15.30
2023-03-18T09:24:28.231Z,15.50
2023-03-18T09:26:54.912Z,15.80
2023-03-18T09:29:21.691Z,15.00
2023-03-18T09:31:48.438Z,15.60
2023-03-18T09:34:15.878Z,15.60
2023-03-18T09:39:23.969Z,15.50
2023-03-18T09:42:25.845Z,16.00
2023-03-18T09:44:58.994Z,16.00
2023-03-18T09:47:56.223Z,16.00
2023-03-18T09:50:40.493Z,15.90
2023-03-18T09:53:28.540Z,15.90
2023-03-18T09:56:02.811Z,16.00
2023-03-18T09:59:04.691Z,16.10
2023-03-18T10:01:36.060Z,16.20
2023-03-18T10:04:20.265Z,16.20
2023-03-18T10:06:50.730Z,16.30
2023-03-18T10:09:24.966Z,16.30
2023-03-18T10:11:53.893Z,16.10
2023-03-18T10:14:26.560Z,16.30
2023-03-18T10:17:22.502Z,16.30
2023-03-18T10:19:56.032Z,16.30
2023-03-18T10:22:37.846Z,16.30
2023-03-18T10:25:35.190Z,16.20
2023-03-18T10:28:43.573Z,16.40
2023-03-18T10:31:33.715Z,16.40
2023-03-18T10:34:44.856Z,16.40
2023-03-18T10:37:34.863Z,16.50
2023-03-18T10:40:02.377Z,16.80
2023-03-18T10:42:31.812Z,17.00
2023-03-18T10:45:24.466Z,17.10
2023-03-18T10:48:20.966Z,17.00
2023-03-18T10:51:09.573Z,16.90
2023-03-18T10:53:42.861Z,17.00
2023-03-18T10:56:11.906Z,16.90
2023-03-18T10:58:40.558Z,16.80
2023-03-18T11:01:13.044Z,16.90
2023-03-18T11:03:52.225Z,17.00
2023-03-18T11:06:45.772Z,17.00
2023-03-18T11:09:24.167Z,16.90
2023-03-18T11:11:56.882Z,17.10
2023-03-18T11:14:31.602Z,17.20
2023-03-18T11:17:18.149Z,17.30
2023-03-18T11:20:11.451Z,17.30
2023-03-18T11:22:44.249Z,17.30
2023-03-18T11:25:30.115Z,17.20
2023-03-18T11:28:07.664Z,17.30
2023-03-18T11:30:56.845Z,17.30
2023-03-18T11:36:00.563Z,18.60
2023-03-18T11:38:33.153Z,17.70
2023-03-18T11:41:30.200Z,17.70
2023-03-18T11:44:08.527Z,17.60
2023-03-18T11:46:49.637Z,17.50
2023-03-18T11:49:26.984Z,17.50
2023-03-18T11:52:22.371Z,17.50
2023-03-18T11:55:03.519Z,17.60
2023-03-18T11:57:45.198Z,17.60
2023-03-18T12:00:40.578Z,17.60
2023-03-18T12:03:32.977Z,17.70
2023-03-18T12:05:59.737Z,17.80
2023-03-18T12:08:37.696Z,17.90
2023-03-18T12:16:30.707Z,18.20
2023-03-18T12:19:12.442Z,18.20
2023-03-18T12:21:45.043Z,18.30
2023-03-18T12:24:50.172Z,18.30
2023-03-18T12:27:38.514Z,18.60
2023-03-18T12:32:40.322Z,18.40
2023-03-18T12:35:17.828Z,18.50
2023-03-18T12:53:49.044Z,18.80
2023-03-18T12:56:29.995Z,18.80
2023-03-18T12:59:21.638Z,18.80
2023-03-18T13:02:26.426Z,18.90
2023-03-18T13:05:05.641Z,18.60
2023-03-18T13:07:53.082Z,18.70
2023-03-18T13:10:22.720Z,18.60
2023-03-18T13:12:59.340Z,18.40
2023-03-18T13:15:29.877Z,18.20
2023-03-18T13:18:02.803Z,18.20
2023-03-18T13:20:36.630Z,18.10
2023-03-18T13:23:16.115Z,18.10
2023-03-18T13:26:44.784Z,18.10
2023-03-18T13:29:23.044Z,18.00
2023-03-18T13:31:54.730Z,18.00
2023-03-18T13:34:33.634Z,17.90
2023-03-18T13:37:17.650Z,17.90
2023-03-18T13:40:00.561Z,17.80
2023-03-18T13:42:30.436Z,17.90
2023-03-18T13:45:12.967Z,18.00
2023-03-18T13:47:42.481Z,18.00
2023-03-18T13:50:22.232Z,17.90
2023-03-18T13:52:51.874Z,17.70
2023-03-18T13:55:41.226Z,17.60
2023-03-18T13:58:32.645Z,17.40
2023-03-18T14:01:15.359Z,17.20
2023-03-18T14:03:44.564Z,17.20
2023-03-18T14:06:24.249Z,17.20
2023-03-18T14:08:53.120Z,17.20
2023-03-18T14:11:37.083Z,17.20
2023-03-18T14:14:26.292Z,17.10
2023-03-18T14:16:53.528Z,17.20
2023-03-18T14:19:32.391Z,17.10
2023-03-18T14:22:23.840Z,17.00
2023-03-18T14:25:11.248Z,17.00
2023-03-18T14:27:55.353Z,16.90
2023-03-18T14:31:05.548Z,16.90
2023-03-18T14:33:34.142Z,17.00
2023-03-18T14:36:25.941Z,17.00
2023-03-18T14:39:07.070Z,17.10
2023-03-18T14:41:40.886Z,17.30
2023-03-18T14:44:07.826Z,17.40
2023-03-18T14:46:41.318Z,17.50
2023-03-18T14:49:36.259Z,17.60
2023-03-18T14:52:32.278Z,17.70
2023-03-18T14:55:05.304Z,17.80
2023-03-18T14:57:34.221Z,18.40
2023-03-18T15:05:04.803Z,20.80
2023-03-18T15:07:39.090Z,20.90
2023-03-18T15:10:19.823Z,21.40
2023-03-18T15:13:07.028Z,20.80
2023-03-18T15:18:16.983Z,19.50
2023-03-18T15:23:18.739Z,19.10
2023-03-18T15:25:45.515Z,19.10
2023-03-18T15:28:23.708Z,18.90
2023-03-18T15:30:56.004Z,18.70
2023-03-18T15:33:41.575Z,18.60
2023-03-18T15:36:17.299Z,18.50
2023-03-18T15:38:50.540Z,18.50
2023-03-18T15:41:21.515Z,18.40
2023-03-18T15:43:53.380Z,18.00
2023-03-18T15:48:56.881Z,16.80
2023-03-18T15:51:40.167Z,17.80
2023-03-18T15:54:17.502Z,17.70
2023-03-18T15:56:49.395Z,17.70
2023-03-18T15:59:23.049Z,17.60
2023-03-18T16:01:50.424Z,17.60
2023-03-18T16:04:17.982Z,17.60
2023-03-18T16:06:44.749Z,17.50
2023-03-18T16:09:15.612Z,17.60
2023-03-18T16:11:43.892Z,17.50
2023-03-18T16:14:16.298Z,17.50
2023-03-18T16:16:43.152Z,17.60
2023-03-18T16:19:25.023Z,17.50
2023-03-18T16:21:52.550Z,17.60
2023-03-18T16:24:21.904Z,17.50
2023-03-18T16:26:49.152Z,17.50
2023-03-18T16:29:21.036Z,17.50
2023-03-18T16:31:50.025Z,17.50
2023-03-18T16:34:21.652Z,17.50
2023-03-18T16:36:50.625Z,17.50
2023-03-18T16:39:27.191Z,17.60
2023-03-18T16:41:54.695Z,17.60
2023-03-18T16:44:23.404Z,17.40
2023-03-18T16:46:56.453Z,17.30
2023-03-18T16:49:25.870Z,17.30
2023-03-18T16:51:53.414Z,17.20
2023-03-18T16:54:21.610Z,17.20
2023-03-18T16:56:55.554Z,17.10
2023-03-18T16:59:29.396Z,17.00
2023-03-18T17:01:56.361Z,16.90
2023-03-18T17:04:30.344Z,16.90
2023-03-18T17:07:01.648Z,16.80
2023-03-18T17:09:28.325Z,16.80
2023-03-18T17:12:04.944Z,16.60
2023-03-18T17:14:40.349Z,16.60
2023-03-18T17:17:16.112Z,16.60
2023-03-18T17:19:45.030Z,16.50
2023-03-18T17:24:47.251Z,16.10
2023-03-18T17:27:25.819Z,16.00
2023-03-18T17:29:55.667Z,15.90
2023-03-18T17:32:22.505Z,15.90
2023-03-18T17:34:51.303Z,15.80
2023-03-18T17:37:23.482Z,15.70
2023-03-18T17:39:50.604Z,15.60
2023-03-18T17:42:26.399Z,15.70
2023-03-18T17:44:53.136Z,15.60
2023-03-18T17:47:19.933Z,15.70
2023-03-18T17:49:46.615Z,15.60
2023-03-18T17:52:19.353Z,15.50
2023-03-18T17:54:48.723Z,15.50
2023-03-18T17:57:17.371Z,15.30
2023-03-18T18:02:17.691Z,15.00
2023-03-18T18:04:45.732Z,15.10
2023-03-18T18:07:25.401Z,14.70
2023-03-18T18:09:52.744Z,14.70
2023-03-18T18:12:25.354Z,14.40
2023-03-18T18:14:52.646Z,14.40
2023-03-18T18:17:19.419Z,14.40
2023-03-18T18:19:46.513Z,14.20
2023-03-18T18:22:22.551Z,14.10
2023-03-18T18:24:50.353Z,14.10
2023-03-18T18:27:17.205Z,14.00
2023-03-18T18:29:45.878Z,14.00
2023-03-18T18:32:15.530Z,13.80
2023-03-18T18:34:45.071Z,13.80
2023-03-18T18:37:11.940Z,13.70
2023-03-18T18:39:38.656Z,13.60
2023-03-18T18:42:07.784Z,13.50
2023-03-18T18:44:37.487Z,13.50
2023-03-18T18:47:04.315Z,13.50
2023-03-18T18:49:31.125Z,13.50
2023-03-18T18:51:57.885Z,13.50
2023-03-18T18:54:25.093Z,13.50
2023-03-18T18:56:54.836Z,13.40
2023-03-18T18:59:28.602Z,13.40
2023-03-18T19:01:56.895Z,13.40
2023-03-18T19:04:24.557Z,13.30
2023-03-18T19:06:52.867Z,13.30
2023-03-18T19:09:23.696Z,13.30
2023-03-18T19:11:51.616Z,13.30
2023-03-18T19:14:27.443Z,13.30
2023-03-18T19:16:57.325Z,13.20
2023-03-18T19:19:32.270Z,13.30
2023-03-18T19:21:59.098Z,13.30
2023-03-18T19:24:35.951Z,13.30
2023-03-18T19:27:27.517Z,13.20
2023-03-18T19:29:57.469Z,13.20
2023-03-18T19:32:25.477Z,13.20
2023-03-18T19:34:55.845Z,13.20
2023-03-18T19:37:27.978Z,13.20
2023-03-18T19:39:58.979Z,13.20
2023-03-18T19:42:26.000Z,13.30
2023-03-18T19:44:52.790Z,13.20
2023-03-18T19:47:24.192Z,13.20
2023-03-18T19:49:53.682Z,13.10
2023-03-18T19:52:20.536Z,13.20
2023-03-18T19:54:52.891Z,13.10
2023-03-18T19:57:25.862Z,13.10
2023-03-18T19:59:54.792Z,13.20
2023-03-18T20:02:24.361Z,13.20
2023-03-18T20:04:53.618Z,13.20
2023-03-18T20:07:22.773Z,13.20
2023-03-18T20:09:49.540Z,13.20
2023-03-18T20:12:19.335Z,13.20
2023-03-18T20:14:46.094Z,13.20
2023-03-18T20:17:49.018Z,13.20
2023-03-18T20:20:27.401Z,13.20
2023-03-18T20:22:57.557Z,13.20
2023-03-18T20:25:30.814Z,13.10
2023-03-18T20:28:04.583Z,13.10
2023-03-18T20:30:36.628Z,13.20
2023-03-18T20:33:06.956Z,13.20
2023-03-18T20:35:44.208Z,13.20
2023-03-18T20:38:28.404Z,13.20
2023-03-18T20:40:58.168Z,13.20
2023-03-18T20:43:28.788Z,13.20
2023-03-18T20:45:57.471Z,13.20
2023-03-18T20:48:32.832Z,13.20
2023-03-18T20:50:59.528Z,13.20
2023-03-18T20:53:29.951Z,13.10
2023-03-18T20:55:59.011Z,13.20
2023-03-18T20:58:31.890Z,13.10
2023-03-18T21:00:58.718Z,13.10
2023-03-18T21:03:30.730Z,13.10
2023-03-18T21:05:59.319Z,13.10
2023-03-18T21:08:30.384Z,13.10
2023-03-18T21:11:01.424Z,13.10
2023-03-18T21:13:28.530Z,13.10
2023-03-18T21:16:01.899Z,13.10
2023-03-18T21:18:28.973Z,13.20
2023-03-18T21:20:56.699Z,13.10
2023-03-18T21:23:28.826Z,13.10
2023-03-18T21:25:56.589Z,13.10
2023-03-18T21:28:25.577Z,13.10
2023-03-18T21:30:56.186Z,13.10
2023-03-18T21:33:33.236Z,13.10
2023-03-18T21:36:00.751Z,13.10
2023-03-18T21:38:29.793Z,13.10
2023-03-18T21:40:57.736Z,13.00
2023-03-18T21:43:33.704Z,13.00
2023-03-18T21:46:04.508Z,13.00
2023-03-18T21:48:33.493Z,13.00
2023-03-18T21:51:00.203Z,12.90
2023-03-18T21:53:30.102Z,13.00
2023-03-18T21:55:57.576Z,13.00
2023-03-18T21:58:28.676Z,12.90
2023-03-18T22:03:33.586Z,12.70
2023-03-18T22:06:00.265Z,12.90
2023-03-18T22:08:27.121Z,12.90
2023-03-18T22:10:53.883Z,12.90
2023-03-18T22:13:21.745Z,12.90
2023-03-18T22:15:57.701Z,12.80
2023-03-18T22:18:24.529Z,12.80
2023-03-18T22:20:51.925Z,12.80
2023-03-18T22:23:21.085Z,12.50
2023-03-18T22:25:52.470Z,12.80
2023-03-18T22:28:19.890Z,12.80
2023-03-18T22:30:51.926Z,12.80
2023-03-18T22:33:26.518Z,12.70
2023-03-18T22:35:53.802Z,12.80
2023-03-18T22:38:26.783Z,12.80
2023-03-18T22:40:57.535Z,12.80
2023-03-18T22:43:33.569Z,12.70
2023-03-18T22:46:02.796Z,12.80
2023-03-18T22:48:29.743Z,12.70
2023-03-18T22:51:00.417Z,12.70
2023-03-18T22:53:46.993Z,12.60
2023-03-18T22:56:16.526Z,12.60
2023-03-18T22:58:43.537Z,12.60
2023-03-18T23:01:15.561Z,12.70
2023-03-18T23:03:44.092Z,12.70
2023-03-18T23:06:18.303Z,12.70
2023-03-18T23:08:47.920Z,12.70
2023-03-18T23:11:15.939Z,12.70
2023-03-18T23:13:45.056Z,12.70
2023-03-18T23:16:20.485Z,12.70
2023-03-18T23:18:47.688Z,12.70
2023-03-18T23:21:24.893Z,12.70
2023-03-18T23:23:52.409Z,12.70
2023-03-18T23:26:19.717Z,12.60
2023-03-18T23:28:49.036Z,12.60
2023-03-18T23:31:18.838Z,12.60
2023-03-18T23:33:45.567Z,12.60
2023-03-18T23:36:14.495Z,12.60
2023-03-18T23:38:43.926Z,12.60
2023-03-18T23:41:12.854Z,12.60
2023-03-18T23:43:39.531Z,12.50
2023-03-18T23:46:06.382Z,12.50
2023-03-18T23:48:33.197Z,12.50
2023-03-18T23:50:59.869Z,12.50
2023-03-18T23:53:27.230Z,12.50
2023-03-18T23:55:56.712Z,12.50
2023-03-18T23:58:23.458Z,12.50
